Time;durP1;ratioP1;P1;durP2;ratioP2;P2;SDS_P1;SDS_P2;PMS_P1;PMS_P2;Temp;Humidity;BMP_temperature;BMP_pressure;BME280_temperature;BME280_humidity;BME280_pressure;Samples;Min_cycle;Max_cycle;Signal;HPM_P1;HPM_P2
2021/06/04 00:00:46;;;;;;;4.10;2.62;;;;;;;15.05;60.20;100804.39;1612604;88;21313;-60
2021/06/04 00:03:53;;;;;;;7.08;3.20;;;;;;;15.05;59.96;100814.05;1612923;88;21225;-63
2021/06/04 00:06:59;;;;;;;7.33;2.90;;;;;;;15.05;59.78;100815.42;1612657;89;21291;-62
2021/06/04 00:10:07;;;;;;;6.72;3.22;;;;;;;15.03;59.89;100820.30;1613612;88;21308;-66
2021/06/04 00:13:46;;;;;;;6.28;3.02;;;;;;;15.02;60.02;100814.44;1613021;88;21735;-64
2021/06/04 00:16:57;;;;;;;4.62;2.80;;;;;;;15.00;60.08;100814.62;1615096;85;21289;-63
2021/06/04 00:20:02;;;;;;;4.92;2.90;;;;;;;14.98;60.29;100818.09;1628235;88;21800;-63
2021/06/04 00:23:10;;;;;;;8.43;2.90;;;;;;;14.97;60.15;100819.16;1628233;88;21244;-60
2021/06/04 00:26:18;;;;;;;3.92;2.80;;;;;;;14.96;60.12;100816.59;1628292;88;21256;-65
2021/06/04 00:29:24;;;;;;;6.05;2.62;;;;;;;14.93;60.09;100823.36;1628437;88;21236;-60
2021/06/04 00:32:29;;;;;;;7.80;3.30;;;;;;;14.90;60.10;100818.75;1628293;88;21733;-64
2021/06/04 00:35:35;;;;;;;4.67;2.80;;;;;;;14.88;60.11;100813.95;1628162;88;21272;-63
2021/06/04 00:38:41;;;;;;;5.87;3.00;;;;;;;14.84;60.27;100818.16;1628264;88;21236;-62
2021/06/04 00:41:57;;;;;;;6.80;3.35;;;;;;;14.83;60.20;100824.69;1628043;88;21304;-64
2021/06/04 00:45:05;;;;;;;8.05;3.12;;;;;;;14.83;60.34;100824.69;1628317;88;21284;-65
2021/06/04 00:48:16;;;;;;;7.00;3.30;;;;;;;14.84;60.53;100824.50;1628353;88;21224;-64
2021/06/04 00:51:31;;;;;;;6.55;3.27;;;;;;;14.83;60.32;100823.31;1628199;88;21241;-62
2021/06/04 00:54:37;;;;;;;5.03;3.00;;;;;;;14.80;60.26;100823.19;1628699;87;21276;-63
2021/06/04 00:57:45;;;;;;;9.40;3.27;;;;;;;14.80;60.17;100816.81;1628292;88;21517;-66
2021/06/04 01:00:53;;;;;;;8.38;3.37;;;;;;;14.78;60.13;100815.63;1628411;88;21297;-62
2021/06/04 01:04:07;;;;;;;4.80;2.95;;;;;;;14.76;60.47;100818.26;1628292;88;21750;-61
2021/06/04 01:07:26;;;;;;;4.50;3.10;;;;;;;14.74;60.65;100817.59;1628216;88;21241;-63
2021/06/04 01:10:57;;;;;;;4.53;2.92;;;;;;;14.73;60.92;100813.13;1628366;88;21264;-66
2021/06/04 01:14:25;;;;;;;5.75;2.80;;;;;;;14.73;60.91;100811.75;1640896;87;21245;-62
2021/06/04 01:18:01;;;;;;;7.45;3.20;;;;;;;14.71;60.91;100815.22;1637611;87;21236;-63
2021/06/04 01:21:18;;;;;;;5.47;2.87;;;;;;;14.68;60.78;100809.55;1675344;84;21236;-62
2021/06/04 01:24:38;;;;;;;5.92;3.10;;;;;;;14.64;60.84;100806.00;1668848;83;21279;-64
2021/06/04 01:27:50;;;;;;;5.50;3.02;;;;;;;14.62;60.93;100810.32;1684338;85;21748;-66
2021/06/04 01:31:12;;;;;;;7.80;3.45;;;;;;;14.62;61.08;100817.72;1684021;85;21243;-63
2021/06/04 01:34:27;;;;;;;5.65;3.20;;;;;;;14.61;61.07;100817.41;1684384;85;21410;-65
2021/06/04 01:37:38;;;;;;;6.70;3.40;;;;;;;14.58;61.08;100824.16;1684350;85;21393;-65
2021/06/04 01:40:48;;;;;;;5.00;3.05;;;;;;;14.56;60.99;100822.11;1684336;83;21739;-63
2021/06/04 01:44:01;;;;;;;7.70;3.20;;;;;;;14.55;61.03;100823.69;1684156;85;21410;-62
2021/06/04 01:47:15;;;;;;;5.85;4.00;;;;;;;14.53;61.08;100825.77;1684533;85;21345;-62
2021/06/04 01:50:32;;;;;;;6.37;3.30;;;;;;;14.52;61.19;100833.71;1683841;85;21800;-64
2021/06/04 01:53:46;;;;;;;6.08;3.40;;;;;;;14.50;61.05;100833.90;1684064;85;21370;-63
2021/06/04 01:56:57;;;;;;;11.38;3.75;;;;;;;14.47;61.26;100826.53;1684098;85;21220;-65
2021/06/04 02:00:04;;;;;;;7.08;3.60;;;;;;;14.44;61.36;100825.03;1684061;85;21249;-65
2021/06/04 02:03:08;;;;;;;5.45;3.37;;;;;;;14.45;61.37;100829.98;1684234;85;21362;-61
2021/06/04 02:06:20;;;;;;;5.20;3.52;;;;;;;14.44;61.38;100826.41;1684296;85;21216;-61
2021/06/04 02:09:27;;;;;;;8.25;3.83;;;;;;;14.44;61.39;100828.30;1684339;83;21429;-59
2021/06/04 02:12:37;;;;;;;7.20;3.30;;;;;;;14.44;61.50;100831.05;1684726;85;21220;-59
2021/06/04 02:15:54;;;;;;;6.87;3.58;;;;;;;14.44;61.69;100841.55;1684602;83;21311;-64
2021/06/04 02:19:11;;;;;;;9.60;3.80;;;;;;;14.45;61.78;100839.63;1682645;83;21401;-66
2021/06/04 02:22:39;;;;;;;9.15;3.15;;;;;;;14.45;61.85;100840.50;1670495;85;21274;-62
2021/06/04 02:25:55;;;;;;;6.22;3.30;;;;;;;14.42;61.95;100838.13;1670365;85;21219;-64
2021/06/04 02:29:30;;;;;;;9.73;3.67;;;;;;;14.40;61.94;100842.09;1670369;86;22106;-64
2021/06/04 02:32:46;;;;;;;8.13;3.60;;;;;;;14.40;62.21;100840.72;1670558;86;21266;-61
2021/06/04 02:36:06;;;;;;;8.55;3.70;;;;;;;14.39;62.42;100844.53;1670491;86;21240;-63
2021/06/04 02:39:41;;;;;;;6.72;3.12;;;;;;;14.38;62.35;100839.53;1670553;86;21377;-63
2021/06/04 02:42:53;;;;;;;6.00;3.90;;;;;;;14.38;62.52;100844.20;1670455;86;21240;-64
2021/06/04 02:46:25;;;;;;;11.03;3.85;;;;;;;14.41;62.71;100861.73;1670419;86;21276;-61
2021/06/04 02:49:31;;;;;;;6.15;3.30;;;;;;;14.44;62.58;100848.44;1670638;86;21261;-62
2021/06/04 02:52:41;;;;;;;6.67;3.40;;;;;;;14.46;62.54;100862.03;1670467;86;21228;-63
2021/06/04 02:55:47;;;;;;;8.08;3.62;;;;;;;14.49;62.46;100857.52;1670520;86;21283;-62
2021/06/04 02:59:04;;;;;;;6.85;3.70;;;;;;;14.52;62.44;100859.88;1656032;86;21267;-62
2021/06/04 03:02:23;;;;;;;8.70;3.92;;;;;;;14.55;62.20;100858.13;1670391;86;21232;-62
2021/06/04 03:05:33;;;;;;;9.43;3.58;;;;;;;14.58;62.13;100866.88;1670189;86;21252;-64
2021/06/04 03:08:41;;;;;;;10.15;4.37;;;;;;;14.60;61.82;100873.57;1670367;85;21214;-66
2021/06/04 03:11:48;;;;;;;7.35;3.40;;;;;;;14.57;61.70;100865.69;1670326;86;21757;-64
2021/06/04 03:14:57;;;;;;;7.53;3.47;;;;;;;14.57;61.78;100871.20;1670188;86;21209;-61
2021/06/04 03:18:05;;;;;;;6.58;3.40;;;;;;;14.57;61.66;100864.31;1670104;86;21285;-62
2021/06/04 03:21:18;;;;;;;6.97;3.90;;;;;;;14.57;61.57;100872.03;1673772;81;21284;-63
2021/06/04 03:24:27;;;;;;;9.70;3.90;;;;;;;14.59;61.68;100874.08;1672546;84;21305;-65
2021/06/04 03:27:33;;;;;;;7.08;3.60;;;;;;;14.62;61.84;100876.97;1672280;85;21228;-61
2021/06/04 03:30:44;;;;;;;7.42;3.58;;;;;;;14.66;61.71;100882.45;1672400;86;21414;-64
2021/06/04 03:33:53;;;;;;;7.28;3.77;;;;;;;14.64;61.84;100877.64;1672375;86;21360;-64
2021/06/04 03:36:59;;;;;;;8.80;3.60;;;;;;;14.64;61.92;100876.27;1672320;85;21390;-63
2021/06/04 03:40:05;;;;;;;9.48;4.17;;;;;;;14.63;61.93;100875.95;1672427;85;21382;-65
2021/06/04 03:43:16;;;;;;;9.40;3.95;;;;;;;14.62;61.99;100868.70;1672307;86;21411;-65
2021/06/04 03:46:22;;;;;;;6.03;3.52;;;;;;;14.61;61.79;100873.38;1672483;86;21403;-61
2021/06/04 03:49:29;;;;;;;8.35;3.70;;;;;;;14.56;61.77;100870.33;1672373;85;21398;-65
2021/06/04 03:52:37;;;;;;;8.08;4.00;;;;;;;14.55;61.90;100867.77;1672377;85;21280;-61
2021/06/04 03:55:44;;;;;;;6.62;3.80;;;;;;;14.52;61.79;100877.28;1672341;85;21347;-61
2021/06/04 03:58:49;;;;;;;13.20;3.52;;;;;;;14.48;61.85;100874.55;1672540;85;21419;-63
2021/06/04 04:01:59;;;;;;;7.10;3.92;;;;;;;14.44;62.15;100877.37;1672645;85;21241;-59
2021/06/04 04:05:06;;;;;;;9.58;4.12;;;;;;;14.44;62.22;100875.99;1672403;86;21347;-63
2021/06/04 04:08:14;;;;;;;7.40;3.55;;;;;;;14.45;62.23;100875.45;1672164;86;21738;-60
2021/06/04 04:11:20;;;;;;;6.90;3.67;;;;;;;14.46;62.31;100868.91;1672079;86;21376;-62
2021/06/04 04:14:28;;;;;;;9.45;4.37;;;;;;;14.45;62.29;100869.42;1671943;86;21217;-60
2021/06/04 04:17:35;;;;;;;7.28;4.22;;;;;;;14.50;62.24;100866.09;1672015;85;21903;-63
2021/06/04 04:20:45;;;;;;;9.93;3.90;;;;;;;14.49;62.13;100868.53;1672077;84;21773;-62
2021/06/04 04:23:58;;;;;;;6.47;3.30;;;;;;;14.43;62.30;100873.42;1673623;85;21276;-63
2021/06/04 04:27:04;;;;;;;6.50;3.52;;;;;;;14.40;62.51;100867.75;1673933;85;21848;-61
2021/06/04 04:30:11;;;;;;;7.22;3.77;;;;;;;14.43;62.58;100876.18;1674168;85;21342;-64
2021/06/04 04:33:16;;;;;;;7.60;4.10;;;;;;;14.48;62.53;100880.58;1674164;85;21919;-65
2021/06/04 04:36:28;;;;;;;6.12;3.75;;;;;;;14.49;62.33;100881.77;1674147;85;21367;-63
2021/06/04 04:39:38;;;;;;;11.53;4.15;;;;;;;14.50;62.43;100879.36;1689720;83;21220;-64
2021/06/04 04:42:44;;;;;;;6.95;3.20;;;;;;;14.49;62.61;100880.93;1711719;83;21211;-62
2021/06/04 04:45:51;;;;;;;10.15;3.92;;;;;;;14.51;62.70;100882.95;1667412;86;21217;-63
2021/06/04 04:48:58;;;;;;;7.20;3.30;;;;;;;14.51;62.72;100885.70;1676586;83;21197;-61
2021/06/04 04:52:10;;;;;;;11.68;4.00;;;;;;;14.54;62.72;100889.48;1643351;85;21212;-60
2021/06/04 04:55:11;;;;;;;6.60;3.22;;;;;;;14.57;63.06;100889.11;1707475;83;21248;-61
2021/06/04 04:58:18;;;;;;;6.30;3.62;;;;;;;14.67;62.90;100886.39;1642628;86;21281;-59
2021/06/04 05:01:23;;;;;;;9.08;3.83;;;;;;;14.74;62.90;100885.98;1695470;83;22105;-60
2021/06/04 05:04:29;;;;;;;8.65;4.20;;;;;;;14.80;62.53;100891.23;1672030;85;21643;-64
2021/06/04 05:07:35;;;;;;;11.65;3.33;;;;;;;14.85;62.81;100889.62;1672597;85;21216;-62
2021/06/04 05:10:41;;;;;;;8.53;3.55;;;;;;;14.91;62.48;100889.38;1673993;85;21741;-60
2021/06/04 05:13:47;;;;;;;9.18;4.20;;;;;;;14.97;62.35;100894.11;1698524;84;21659;-63
2021/06/04 05:16:55;;;;;;;9.08;4.22;;;;;;;15.05;62.42;100898.14;1696786;83;21289;-63
2021/06/04 05:20:02;;;;;;;9.55;4.15;;;;;;;15.17;62.35;100895.25;1641088;85;21352;-63
2021/06/04 05:23:07;;;;;;;7.10;3.15;;;;;;;15.31;62.18;100897.12;1702207;83;21240;-58
2021/06/04 05:26:14;;;;;;;7.50;3.65;;;;;;;15.50;61.96;100893.77;1708452;83;21213;-62
2021/06/04 05:29:21;;;;;;;9.90;4.37;;;;;;;15.73;61.53;100900.50;1694499;83;21252;-61
2021/06/04 05:32:26;;;;;;;10.63;4.05;;;;;;;15.93;60.99;100902.92;1701033;83;21262;-62
2021/06/04 05:35:34;;;;;;;9.60;3.75;;;;;;;16.04;60.61;100903.25;1719590;83;21798;-62
2021/06/04 05:38:42;;;;;;;5.65;3.50;;;;;;;16.11;60.02;100905.53;1663507;85;21217;-62
2021/06/04 05:41:49;;;;;;;10.98;3.37;;;;;;;16.16;59.78;100916.84;1724255;83;21202;-62
2021/06/04 05:44:54;;;;;;;8.03;3.75;;;;;;;16.26;60.28;100904.94;1658448;85;21274;-61
2021/06/04 05:48:01;;;;;;;11.25;3.60;;;;;;;16.37;60.19;100903.52;1710180;83;21621;-62
2021/06/04 05:51:11;;;;;;;9.85;3.70;;;;;;;16.46;60.02;100908.42;1661532;86;21399;-62
2021/06/04 05:54:18;;;;;;;11.53;4.05;;;;;;;16.61;60.08;100905.00;1724070;82;21225;-62
2021/06/04 05:57:25;;;;;;;7.55;3.37;;;;;;;16.74;59.75;100910.63;1723520;82;21221;-61
2021/06/04 06:00:36;;;;;;;9.20;3.62;;;;;;;16.79;59.69;100906.73;1708900;84;21453;-62
2021/06/04 06:03:41;;;;;;;11.65;4.12;;;;;;;16.83;59.12;100902.48;1711670;84;21704;-60
2021/06/04 06:06:51;;;;;;;7.30;3.72;;;;;;;16.86;58.82;100898.79;1712001;83;21355;-63
2021/06/04 06:09:59;;;;;;;9.28;3.87;;;;;;;16.96;59.16;100909.48;1682672;85;21239;-61
2021/06/04 06:13:06;;;;;;;7.30;4.08;;;;;;;17.03;58.55;100903.47;1682664;85;21788;-61
2021/06/04 06:16:11;;;;;;;9.13;3.58;;;;;;;17.16;59.43;100903.52;1679719;84;21234;-61
2021/06/04 06:19:19;;;;;;;7.65;3.45;;;;;;;17.31;58.75;100900.08;1674925;85;21732;-61
2021/06/04 06:22:23;;;;;;;9.03;3.62;;;;;;;17.41;58.18;100904.16;1680010;85;21266;-63
2021/06/04 06:25:39;;;;;;;10.95;3.65;;;;;;;17.45;57.72;100902.73;1676412;83;21553;-61
2021/06/04 06:28:45;;;;;;;7.28;3.30;;;;;;;17.51;58.34;100901.03;1672426;86;21203;-64
2021/06/04 06:31:53;;;;;;;8.05;3.50;;;;;;;17.62;57.94;100902.67;1672433;86;21226;-61
2021/06/04 06:34:57;;;;;;;9.85;3.65;;;;;;;17.76;57.80;100899.39;1672571;85;21817;-65
2021/06/04 06:38:04;;;;;;;8.25;4.03;;;;;;;17.94;57.90;100896.88;1687896;83;21240;-62
2021/06/04 06:41:11;;;;;;;9.93;3.95;;;;;;;18.06;57.02;100892.96;1707001;83;21249;-62
2021/06/04 06:44:20;;;;;;;10.03;4.00;;;;;;;18.09;57.07;100890.63;1698420;83;21415;-60
2021/06/04 06:47:25;;;;;;;10.28;3.90;;;;;;;18.11;56.11;100898.17;1687577;85;21297;-63
2021/06/04 06:50:32;;;;;;;5.42;3.12;;;;;;;18.14;56.78;100899.13;1687055;85;21236;-64
2021/06/04 06:53:42;;;;;;;6.53;3.65;;;;;;;18.20;55.98;100901.08;1686340;85;21313;-58
2021/06/04 06:56:49;;;;;;;13.28;3.27;;;;;;;18.17;55.90;100896.48;1686600;85;22015;-55
2021/06/04 06:59:54;;;;;;;9.00;3.60;;;;;;;18.23;56.06;100904.80;1686626;85;21762;-56
2021/06/04 07:03:01;;;;;;;7.65;2.85;;;;;;;18.38;56.13;100890.73;1704631;83;21237;-57
2021/06/04 07:06:12;;;;;;;8.75;3.02;;;;;;;18.53;54.62;100895.54;1702167;83;21252;-56
2021/06/04 07:09:20;;;;;;;7.85;3.00;;;;;;;18.61;54.02;100893.94;1676070;85;21745;-55
2021/06/04 07:12:25;;;;;;;11.57;3.27;;;;;;;18.66;55.00;100892.20;1684413;84;21718;-55
2021/06/04 07:15:32;;;;;;;14.15;3.02;;;;;;;18.72;54.29;100898.30;1680614;84;21213;-55
2021/06/04 07:18:38;;;;;;;10.90;3.00;;;;;;;18.81;54.50;100897.52;1686525;85;21616;-57
2021/06/04 07:21:45;;;;;;;10.65;3.50;;;;;;;18.90;53.12;100885.14;1687224;85;21823;-56
2021/06/04 07:24:50;;;;;;;9.33;2.52;;;;;;;18.91;50.87;100893.77;1702324;83;21280;-56
2021/06/04 07:27:55;;;;;;;7.67;2.62;;;;;;;18.94;50.94;100894.19;1641107;87;21239;-56
2021/06/04 07:31:02;;;;;;;8.68;2.80;;;;;;;19.01;49.50;100885.30;1696673;84;21589;-56
2021/06/04 07:34:12;;;;;;;5.58;2.50;;;;;;;19.07;49.25;100886.36;1672398;85;21252;-57
2021/06/04 07:37:18;;;;;;;10.25;2.22;;;;;;;19.17;49.05;100883.42;1668287;86;21220;-54
2021/06/04 07:40:29;;;;;;;10.00;2.60;;;;;;;19.24;49.08;100878.71;1668351;86;21312;-55
2021/06/04 07:43:38;;;;;;;9.18;2.65;;;;;;;19.28;48.16;100873.05;1677637;84;21238;-58
2021/06/04 07:46:43;;;;;;;4.37;2.20;;;;;;;19.35;47.63;100874.41;1691624;83;21885;-56
2021/06/04 07:49:49;;;;;;;8.93;3.15;;;;;;;19.36;46.97;100888.60;1675600;85;21233;-57
2021/06/04 07:52:55;;;;;;;5.87;2.42;;;;;;;19.30;47.64;100877.00;1675167;85;21220;-57
2021/06/04 07:56:03;;;;;;;7.67;2.37;;;;;;;19.29;47.21;100876.16;1675269;84;21299;-57
2021/06/04 07:59:09;;;;;;;6.90;2.50;;;;;;;19.28;46.93;100871.66;1701389;84;21808;-57
2021/06/04 08:02:18;;;;;;;8.85;2.72;;;;;;;19.31;48.24;100881.50;1674930;85;21284;-56
2021/06/04 08:05:25;;;;;;;7.10;2.58;;;;;;;19.39;48.13;100873.45;1675574;85;21381;-50
2021/06/04 08:08:33;;;;;;;5.15;2.62;;;;;;;19.51;48.81;100876.69;1675260;85;21239;-53
2021/06/04 08:11:47;;;;;;;9.18;2.65;;;;;;;19.64;47.49;100868.28;1676118;85;21236;-53
2021/06/04 08:14:53;;;;;;;12.35;3.30;;;;;;;19.73;48.16;100871.63;1709865;83;21266;-52
2021/06/04 08:18:01;;;;;;;8.58;2.52;;;;;;;19.82;48.46;100866.97;1718704;83;21221;-49
2021/06/04 08:21:07;;;;;;;12.75;2.67;;;;;;;19.95;47.26;100878.53;1645513;85;21295;-52
2021/06/04 08:24:13;;;;;;;8.40;2.83;;;;;;;20.03;46.75;100871.31;1718288;83;21764;-55
2021/06/04 08:27:20;;;;;;;10.63;2.67;;;;;;;20.13;46.24;100863.33;1704493;81;21244;-56
2021/06/04 08:30:27;;;;;;;7.03;2.80;;;;;;;20.25;45.73;100874.05;1704587;83;21216;-55
2021/06/04 08:33:37;;;;;;;12.82;2.65;;;;;;;20.35;45.53;100868.84;1701975;83;21204;-59
2021/06/04 08:36:45;;;;;;;9.58;2.85;;;;;;;20.40;44.11;100859.28;1707954;84;21370;-61
2021/06/04 08:39:51;;;;;;;9.63;2.95;;;;;;;20.44;44.00;100857.73;1709143;83;21772;-60
2021/06/04 08:43:37;;;;;;;10.43;2.52;;;;;;;20.50;44.23;100856.84;1701082;83;21208;-62
2021/06/04 08:46:46;;;;;;;5.05;1.90;;;;;;;20.58;44.15;100860.73;1692337;84;21822;-58
2021/06/04 08:50:13;;;;;;;12.65;2.62;;;;;;;20.62;43.13;100859.17;1694152;83;21276;-59
2021/06/04 08:53:37;;;;;;;13.83;2.90;;;;;;;20.64;43.28;100857.84;1695169;84;21362;-57
2021/06/04 08:57:18;;;;;;;10.68;2.50;;;;;;;20.68;43.07;100848.50;1710442;83;21371;-56
2021/06/04 09:00:36;;;;;;;10.50;2.65;;;;;;;20.70;42.20;100854.17;1680650;84;21261;-56
2021/06/04 09:03:48;;;;;;;12.53;2.45;;;;;;;20.67;42.17;100844.89;1680821;85;21220;-61
2021/06/04 09:10:36;;;;;;;4.17;2.10;;;;;;;20.86;41.55;100845.75;1744937;82;21257;-58
2021/06/04 09:13:45;;;;;;;5.35;2.80;;;;;;;21.00;40.97;100851.50;1749016;82;21230;-61
2021/06/04 09:17:18;;;;;;;8.65;2.10;;;;;;;21.11;40.77;100850.72;1740385;82;21328;-60
2021/06/04 09:20:32;;;;;;;10.45;2.00;;;;;;;21.19;40.70;100843.45;1731831;82;21252;-61
2021/06/04 09:23:43;;;;;;;6.80;2.50;;;;;;;21.30;40.07;100841.80;1731536;80;21193;-59
2021/06/04 09:26:49;;;;;;;10.20;2.83;;;;;;;21.38;40.90;100832.59;1692743;85;21360;-62
2021/06/04 09:29:54;;;;;;;7.30;2.15;;;;;;;21.53;40.33;100840.53;1689408;82;21769;-58
2021/06/04 09:33:33;;;;;;;6.55;1.90;;;;;;;21.61;40.48;100839.64;1656022;83;21200;-60
2021/06/04 09:37:09;;;;;;;5.75;2.22;;;;;;;21.72;40.21;100832.42;1726083;80;21257;-56
2021/06/04 09:40:36;;;;;;;10.23;2.20;;;;;;;21.86;40.81;100840.39;1703510;83;21476;-59
2021/06/04 09:43:41;;;;;;;7.78;2.22;;;;;;;21.95;39.45;100829.72;1716457;82;21753;-58
2021/06/04 09:47:10;;;;;;;6.12;2.15;;;;;;;22.05;39.88;100829.46;1722049;82;21185;-62
2021/06/04 09:50:40;;;;;;;10.00;2.25;;;;;;;22.19;38.61;100828.68;1706571;82;21240;-62
2021/06/04 09:53:48;;;;;;;7.10;2.10;;;;;;;22.32;39.46;100822.02;1693490;82;21808;-66
2021/06/04 09:56:55;;;;;;;7.90;2.30;;;;;;;22.53;38.48;100820.06;1698924;83;21556;-58
2021/06/04 10:00:02;;;;;;;7.37;2.12;;;;;;;22.72;37.35;100818.84;1698501;83;21243;-62
2021/06/04 10:03:33;;;;;;;7.95;2.10;;;;;;;22.88;37.45;100823.67;1680572;85;21200;-60
2021/06/04 10:06:51;;;;;;;8.63;1.98;;;;;;;22.83;36.17;100830.54;1692713;82;21760;-59
2021/06/04 10:09:58;;;;;;;10.35;2.70;;;;;;;22.76;36.62;100814.45;1712297;81;21259;-62
2021/06/04 10:13:06;;;;;;;4.85;1.90;;;;;;;22.79;36.17;100823.73;1733167;82;21843;-68
2021/06/04 10:16:14;;;;;;;5.78;2.30;;;;;;;22.84;36.67;100819.66;1727987;81;21176;-59
2021/06/04 10:19:35;;;;;;;9.08;3.00;;;;;;;22.93;36.40;100826.02;1694011;82;21847;-59
2021/06/04 10:22:48;;;;;;;6.55;2.52;;;;;;;22.84;35.37;100835.02;1699486;83;21254;-63
2021/06/04 10:26:06;;;;;;;9.53;2.62;;;;;;;22.65;34.97;100823.15;1721268;83;21419;-64
2021/06/04 10:29:19;;;;;;;6.83;2.58;;;;;;;22.52;35.22;100823.92;1745274;82;21291;-70
2021/06/04 10:32:25;;;;;;;10.00;2.50;;;;;;;22.65;36.25;100820.89;1733139;80;21224;-67
2021/06/04 10:35:41;;;;;;;6.25;2.00;;;;;;;23.04;36.02;100823.75;1739838;82;21227;-69
2021/06/04 10:38:53;;;;;;;3.83;2.02;;;;;;;23.30;33.99;100829.36;1735207;82;21201;-66
2021/06/04 10:42:36;;;;;;;4.78;2.20;;;;;;;23.44;32.98;100819.59;1745777;81;21710;-66
2021/06/04 10:45:45;;;;;;;4.92;1.92;;;;;;;23.71;33.70;100817.88;1723489;81;21753;-68
2021/06/04 10:49:19;;;;;;;7.75;2.20;;;;;;;23.78;34.06;100819.98;1724064;82;21772;-59
2021/06/04 10:52:31;;;;;;;6.10;2.20;;;;;;;23.62;33.13;100824.98;1740473;81;21204;-61
2021/06/04 10:56:13;;;;;;;7.55;1.92;;;;;;;23.47;33.48;100823.27;1771810;80;21225;-59
2021/06/04 10:59:33;;;;;;;5.72;2.25;;;;;;;23.52;34.13;100816.39;1760283;79;21788;-61
2021/06/04 11:03:03;;;;;;;8.93;2.22;;;;;;;23.78;34.44;100828.38;1707035;82;21268;-59
2021/06/04 11:06:30;;;;;;;16.20;3.42;;;;;;;23.78;35.10;100828.91;1704824;82;21208;-60
2021/06/04 11:10:02;;;;;;;5.60;2.52;;;;;;;23.75;34.91;100823.83;1719854;83;21910;-59
2021/06/04 11:13:38;;;;;;;6.35;1.95;;;;;;;23.59;35.06;100826.89;1709683;84;21220;-60
2021/06/04 11:17:06;;;;;;;7.62;2.33;;;;;;;23.56;34.73;100830.19;1712203;82;21260;-59
2021/06/04 11:20:32;;;;;;;11.80;2.12;;;;;;;23.47;34.82;100827.47;1715341;82;21228;-58
2021/06/04 11:24:02;;;;;;;10.65;2.77;;;;;;;23.41;35.58;100829.87;1728695;82;21189;-60
2021/06/04 11:27:07;;;;;;;7.53;2.58;;;;;;;23.42;34.87;100832.98;1732004;82;21212;-58
2021/06/04 11:30:22;;;;;;;8.20;2.08;;;;;;;23.41;35.41;100834.06;1720790;83;21237;-58
2021/06/04 11:33:40;;;;;;;9.33;2.20;;;;;;;23.45;34.98;100831.09;1703249;82;21265;-58
2021/06/04 11:36:51;;;;;;;8.68;2.50;;;;;;;23.55;35.91;100824.28;1736788;82;21197;-59
2021/06/04 11:39:58;;;;;;;12.13;2.20;;;;;;;23.73;36.02;100831.61;1707949;83;21598;-59
2021/06/04 11:43:14;;;;;;;5.97;2.02;;;;;;;23.79;35.49;100837.05;1716425;83;21256;-57
2021/06/04 11:46:31;;;;;;;9.78;2.42;;;;;;;23.75;35.16;100844.27;1738936;82;21221;-59
2021/06/04 11:49:37;;;;;;;4.95;1.98;;;;;;;23.44;34.71;100844.73;1700030;83;21767;-59
2021/06/04 11:52:54;;;;;;;9.08;3.27;;;;;;;23.16;34.01;100840.48;1726040;82;21826;-58
2021/06/04 11:56:01;;;;;;;10.58;4.53;;;;;;;23.00;35.09;100840.71;1715246;83;21926;-58
2021/06/04 11:59:07;;;;;;;14.63;6.28;;;;;;;23.06;35.64;100843.05;1710110;83;21260;-59
2021/06/04 12:02:13;;;;;;;11.55;5.62;;;;;;;23.12;35.88;100842.09;1688252;85;21459;-58
2021/06/04 12:05:30;;;;;;;11.73;2.95;;;;;;;23.22;36.48;100839.49;1716534;83;21369;-57
2021/06/04 12:08:42;;;;;;;8.35;2.37;;;;;;;23.28;36.06;100842.72;1713769;82;21216;-57
2021/06/04 12:11:49;;;;;;;10.05;2.00;;;;;;;23.39;34.91;100843.23;1732480;81;21784;-59
2021/06/04 12:15:09;;;;;;;9.20;2.50;;;;;;;23.53;34.45;100838.50;1726392;82;21232;-58
2021/06/04 12:19:06;;;;;;;9.03;2.37;;;;;;;23.69;35.08;100846.63;1715435;83;21202;-59
2021/06/04 12:22:35;;;;;;;7.37;2.25;;;;;;;23.97;35.19;100845.80;1748208;79;21783;-59
2021/06/04 12:26:01;;;;;;;14.05;2.12;;;;;;;24.24;34.10;100843.52;1698739;82;21216;-58
2021/06/04 12:29:06;;;;;;;5.05;1.87;;;;;;;24.35;34.77;100841.72;1745035;82;21235;-59
2021/06/04 12:32:18;;;;;;;9.93;2.40;;;;;;;24.54;34.14;100840.36;1685670;85;21283;-62
2021/06/04 12:35:50;;;;;;;3.55;2.20;;;;;;;24.54;33.30;100839.81;1713058;83;21233;-60
2021/06/04 12:38:57;;;;;;;11.68;6.10;;;;;;;24.60;33.74;100848.58;1693429;83;21768;-62
2021/06/04 12:42:35;;;;;;;8.18;3.35;;;;;;;24.66;33.45;100845.30;1712977;83;21682;-58
2021/06/04 12:45:43;;;;;;;10.53;2.17;;;;;;;24.70;33.07;100847.38;1713789;82;21172;-60
2021/06/04 12:48:52;;;;;;;9.45;2.08;;;;;;;24.77;33.17;100848.03;1720228;82;21177;-60
2021/06/04 12:51:58;;;;;;;8.05;2.30;;;;;;;24.98;33.27;100837.42;1714119;83;21196;-61
2021/06/04 12:55:23;;;;;;;7.08;2.00;;;;;;;25.17;33.15;100838.49;1713180;83;21370;-59
2021/06/04 12:58:54;;;;;;;6.65;1.98;;;;;;;25.33;33.18;100841.78;1725814;82;21251;-61
2021/06/04 13:02:10;;;;;;;8.67;2.60;;;;;;;25.20;31.62;100836.59;1713991;83;21213;-60
2021/06/04 13:05:17;;;;;;;5.85;1.72;;;;;;;24.64;32.86;100849.75;1714153;83;21248;-62
2021/06/04 13:08:35;;;;;;;9.85;2.67;;;;;;;24.25;33.41;100843.80;1714225;83;21351;-56
2021/06/04 13:11:53;;;;;;;13.90;3.08;;;;;;;23.81;33.79;100841.85;1714113;83;21232;-59
2021/06/04 13:14:59;;;;;;;7.40;2.75;;;;;;;23.53;34.22;100839.91;1720670;83;21390;-56
2021/06/04 13:18:11;;;;;;;5.28;2.30;;;;;;;23.32;33.97;100846.73;1721694;83;21350;-58
2021/06/04 13:21:27;;;;;;;7.60;2.02;;;;;;;23.15;34.76;100841.02;1720420;83;21802;-62
2021/06/04 13:24:38;;;;;;;7.03;2.12;;;;;;;22.91;34.47;100839.94;1721139;82;21382;-63
2021/06/04 13:27:43;;;;;;;8.90;1.90;;;;;;;22.79;34.35;100844.13;1714944;83;21216;-61
2021/06/04 13:31:07;;;;;;;7.87;1.70;;;;;;;22.75;35.11;100839.28;1715183;83;21212;-62
2021/06/04 13:34:25;;;;;;;5.60;2.10;;;;;;;22.68;35.31;100852.50;1716482;83;21248;-61
2021/06/04 13:37:45;;;;;;;5.97;2.08;;;;;;;22.53;35.65;100843.78;1715879;83;21548;-62
2021/06/04 13:40:53;;;;;;;9.85;1.85;;;;;;;22.43;35.36;100837.91;1716411;83;21315;-63
2021/06/04 13:44:00;;;;;;;5.78;2.17;;;;;;;22.37;35.70;100849.52;1715634;83;21725;-63
2021/06/04 13:47:09;;;;;;;8.58;2.33;;;;;;;22.38;35.11;100847.55;1698219;83;21204;-61
2021/06/04 13:50:37;;;;;;;9.48;2.10;;;;;;;22.41;34.63;100847.92;1715105;83;21328;-62
2021/06/04 13:53:49;;;;;;;13.60;2.05;;;;;;;22.42;34.57;100851.58;1687517;83;21296;-62
2021/06/04 13:56:55;;;;;;;11.88;2.12;;;;;;;22.39;34.24;100849.27;1689313;85;21264;-62
2021/06/04 14:00:29;;;;;;;7.58;2.00;;;;;;;22.35;34.51;100846.64;1716187;83;21909;-63
2021/06/04 14:03:38;;;;;;;9.30;1.87;;;;;;;22.39;34.46;100843.13;1714112;83;21738;-62
2021/06/04 14:06:44;;;;;;;6.55;1.80;;;;;;;22.48;34.27;100840.84;1703495;83;21260;-64
2021/06/04 14:09:52;;;;;;;6.70;2.12;;;;;;;22.53;34.24;100841.86;1715127;83;21188;-63
2021/06/04 14:13:08;;;;;;;4.15;1.85;;;;;;;22.58;34.47;100839.16;1776988;79;21556;-60
2021/06/04 14:16:15;;;;;;;2.83;1.65;;;;;;;22.73;34.81;100844.25;1748744;80;21236;-63
2021/06/04 14:19:45;;;;;;;7.10;2.05;;;;;;;22.86;35.28;100841.22;1736946;80;21248;-61
2021/06/04 14:22:53;;;;;;;6.65;2.42;;;;;;;22.95;34.29;100838.34;1733587;80;21364;-59
2021/06/04 14:25:58;;;;;;;6.50;1.98;;;;;;;22.95;34.40;100834.15;1735172;80;21186;-58
2021/06/04 14:29:17;;;;;;;4.35;1.75;;;;;;;22.85;34.03;100845.94;1693607;83;21239;-61
2021/06/04 14:32:34;;;;;;;9.08;1.85;;;;;;;22.69;34.54;100846.67;1773320;80;21203;-60
2021/06/04 14:36:05;;;;;;;11.45;1.75;;;;;;;22.60;34.72;100843.95;1689624;83;21197;-61
2021/06/04 14:39:41;;;;;;;6.28;2.20;;;;;;;22.54;35.09;100846.33;1742338;82;21727;-60
2021/06/04 14:42:46;;;;;;;7.60;1.80;;;;;;;22.49;35.17;100842.52;1696307;84;21351;-59
2021/06/04 14:45:50;;;;;;;14.20;3.20;;;;;;;22.49;35.71;100829.96;1719455;83;21370;-56
2021/06/04 14:48:55;;;;;;;6.60;2.27;;;;;;;22.48;35.88;100843.09;1736959;80;21241;-55
2021/06/04 14:52:01;;;;;;;9.28;2.90;;;;;;;22.50;35.76;100835.30;1769720;80;21204;-56
2021/06/04 14:55:05;;;;;;;11.95;3.05;;;;;;;22.52;36.04;100838.73;1746267;82;21294;-55
2021/06/04 14:58:11;;;;;;;13.18;3.02;;;;;;;22.50;36.12;100840.05;1724847;80;21419;-56